sensor_id;sensor_type;location;lat;lon;timestamp;pressure;altitude;pressure_sealevel;temperature;humidity
34073;BME280;20346;52.702;16.886;2023-04-29T00:00:06;100491.70;;;10.86;46.50
34073;BME280;20346;52.702;16.886;2023-04-29T00:03:53;100485.59;;;10.81;46.63
34073;BME280;20346;52.702;16.886;2023-04-29T00:07:40;100479.05;;;10.80;46.61
34073;BME280;20346;52.702;16.886;2023-04-29T00:11:27;100476.58;;;10.84;46.63
34073;BME280;20346;52.702;16.886;2023-04-29T00:15:14;100474.13;;;10.85;46.75
34073;BME280;20346;52.702;16.886;2023-04-29T00:19:01;100475.02;;;10.84;46.88
34073;BME280;20346;52.702;16.886;2023-04-29T00:22:48;100473.14;;;10.83;47.09
34073;BME280;20346;52.702;16.886;2023-04-29T00:26:34;100471.71;;;10.85;47.00
34073;BME280;20346;52.702;16.886;2023-04-29T00:30:21;100471.67;;;10.87;47.01
34073;BME280;20346;52.702;16.886;2023-04-29T00:34:08;100477.77;;;10.92;47.15
34073;BME280;20346;52.702;16.886;2023-04-29T00:37:56;100472.52;;;10.96;47.20
34073;BME280;20346;52.702;16.886;2023-04-29T00:41:52;100469.21;;;10.97;47.30
34073;BME280;20346;52.702;16.886;2023-04-29T00:45:39;100464.48;;;11.00;47.44
34073;BME280;20346;52.702;16.886;2023-04-29T00:49:25;100463.78;;;11.01;47.41
34073;BME280;20346;52.702;16.886;2023-04-29T00:53:12;100469.25;;;11.04;47.47
34073;BME280;20346;52.702;16.886;2023-04-29T00:56:58;100465.75;;;11.06;47.48
34073;BME280;20346;52.702;16.886;2023-04-29T01:00:45;100460.98;;;11.03;47.55
34073;BME280;20346;52.702;16.886;2023-04-29T01:04:32;100459.39;;;10.97;47.64
34073;BME280;20346;52.702;16.886;2023-04-29T01:11:15;100463.89;;;10.88;47.78
34073;BME280;20346;52.702;16.886;2023-04-29T01:15:03;100466.29;;;10.89;47.86
34073;BME280;20346;52.702;16.886;2023-04-29T01:18:56;100465.08;;;10.89;47.91
34073;BME280;20346;52.702;16.886;2023-04-29T01:21:51;100461.34;;;10.87;47.97
34073;BME280;20346;52.702;16.886;2023-04-29T01:25:38;100458.79;;;10.85;48.07
34073;BME280;20346;52.702;16.886;2023-04-29T01:33:40;100457.73;;;10.77;48.07
34073;BME280;20346;52.702;16.886;2023-04-29T01:37:32;100466.54;;;10.77;48.23
34073;BME280;20346;52.702;16.886;2023-04-29T01:40:47;100461.67;;;10.79;48.33
34073;BME280;20346;52.702;16.886;2023-04-29T01:43:49;100459.29;;;10.77;48.34
34073;BME280;20346;52.702;16.886;2023-04-29T01:50:18;100454.92;;;10.80;48.40
34073;BME280;20346;52.702;16.886;2023-04-29T01:54:04;100455.06;;;10.82;48.53
34073;BME280;20346;52.702;16.886;2023-04-29T01:57:28;100453.36;;;10.81;48.64
34073;BME280;20346;52.702;16.886;2023-04-29T02:01:15;100458.70;;;10.80;48.76
34073;BME280;20346;52.702;16.886;2023-04-29T02:06:48;100457.79;;;10.83;48.74
34073;BME280;20346;52.702;16.886;2023-04-29T02:15:04;100456.98;;;10.81;48.95
34073;BME280;20346;52.702;16.886;2023-04-29T02:18:50;100453.76;;;10.77;49.07
34073;BME280;20346;52.702;16.886;2023-04-29T02:22:37;100456.73;;;10.75;49.14
34073;BME280;20346;52.702;16.886;2023-04-29T02:26:24;100457.18;;;10.70;49.23
34073;BME280;20346;52.702;16.886;2023-04-29T02:30:13;100454.48;;;10.67;49.34
34073;BME280;20346;52.702;16.886;2023-04-29T02:34:00;100453.14;;;10.65;49.40
34073;BME280;20346;52.702;16.886;2023-04-29T02:37:48;100452.14;;;10.63;49.38
34073;BME280;20346;52.702;16.886;2023-04-29T02:41:37;100451.27;;;10.63;49.40
34073;BME280;20346;52.702;16.886;2023-04-29T02:45:25;100450.44;;;10.62;49.57
34073;BME280;20346;52.702;16.886;2023-04-29T02:49:12;100448.11;;;10.57;49.63
34073;BME280;20346;52.702;16.886;2023-04-29T02:52:31;100449.89;;;10.54;49.69
34073;BME280;20346;52.702;16.886;2023-04-29T02:58:01;100450.10;;;10.51;49.78
34073;BME280;20346;52.702;16.886;2023-04-29T03:01:02;100452.20;;;10.50;49.90
34073;BME280;20346;52.702;16.886;2023-04-29T03:14:33;100444.01;;;10.55;50.15
34073;BME280;20346;52.702;16.886;2023-04-29T03:17:31;100442.13;;;10.54;50.25
34073;BME280;20346;52.702;16.886;2023-04-29T03:21:19;100449.23;;;10.52;50.37
34073;BME280;20346;52.702;16.886;2023-04-29T03:25:06;100443.06;;;10.50;50.69
34073;BME280;20346;52.702;16.886;2023-04-29T03:28:53;100433.12;;;10.48;50.85
34073;BME280;20346;52.702;16.886;2023-04-29T03:32:40;100433.92;;;10.42;50.93
34073;BME280;20346;52.702;16.886;2023-04-29T03:36:28;100437.45;;;10.39;51.22
34073;BME280;20346;52.702;16.886;2023-04-29T03:40:15;100441.84;;;10.42;51.43
34073;BME280;20346;52.702;16.886;2023-04-29T03:44:02;100440.80;;;10.43;51.54
34073;BME280;20346;52.702;16.886;2023-04-29T03:47:57;100440.39;;;10.46;51.78
34073;BME280;20346;52.702;16.886;2023-04-29T03:51:50;100433.48;;;10.39;51.85
34073;BME280;20346;52.702;16.886;2023-04-29T03:58:11;100437.42;;;10.40;51.93
34073;BME280;20346;52.702;16.886;2023-04-29T04:01:58;100440.10;;;10.43;52.21
34073;BME280;20346;52.702;16.886;2023-04-29T04:10:19;100442.58;;;10.48;52.34
34073;BME280;20346;52.702;16.886;2023-04-29T04:14:05;100439.95;;;10.51;52.60
34073;BME280;20346;52.702;16.886;2023-04-29T04:17:52;100443.36;;;10.53;52.59
34073;BME280;20346;52.702;16.886;2023-04-29T04:21:38;100444.73;;;10.54;52.81
34073;BME280;20346;52.702;16.886;2023-04-29T04:25:25;100445.23;;;10.54;52.78
34073;BME280;20346;52.702;16.886;2023-04-29T04:29:12;100445.55;;;10.56;52.95
34073;BME280;20346;52.702;16.886;2023-04-29T04:32:59;100444.79;;;10.59;53.09
34073;BME280;20346;52.702;16.886;2023-04-29T04:36:46;100445.90;;;10.65;53.25
